sensor_id;sensor_type;location;lat;lon;timestamp;pressure;altitude;pressure_sealevel;temperature;humidity
79527;BME280;68974;47.754;-3.364;2023-06-14T00:00:05;101326.06;;;19.46;62.54
79527;BME280;68974;47.754;-3.364;2023-06-14T00:02:31;101329.00;;;19.50;63.20
79527;BME280;68974;47.754;-3.364;2023-06-14T00:04:56;101328.84;;;19.46;62.74
79527;BME280;68974;47.754;-3.364;2023-06-14T00:07:33;101335.75;;;19.49;62.69
79527;BME280;68974;47.754;-3.364;2023-06-14T00:09:59;101335.38;;;19.33;62.86
79527;BME280;68974;47.754;-3.364;2023-06-14T00:12:24;101338.78;;;19.30;63.07
79527;BME280;68974;47.754;-3.364;2023-06-14T00:14:50;101335.97;;;19.22;63.29
79527;BME280;68974;47.754;-3.364;2023-06-14T00:17:15;101342.81;;;18.98;64.30
79527;BME280;68974;47.754;-3.364;2023-06-14T00:19:41;101343.19;;;19.06;64.15
79527;BME280;68974;47.754;-3.364;2023-06-14T00:22:07;101339.56;;;19.05;64.18
79527;BME280;68974;47.754;-3.364;2023-06-14T00:24:35;101332.19;;;19.09;64.00
79527;BME280;68974;47.754;-3.364;2023-06-14T00:27:00;101332.66;;;19.02;64.62
79527;BME280;68974;47.754;-3.364;2023-06-14T00:29:26;101340.38;;;19.06;64.27
79527;BME280;68974;47.754;-3.364;2023-06-14T00:31:51;101337.75;;;19.00;64.12
79527;BME280;68974;47.754;-3.364;2023-06-14T00:34:16;101341.84;;;19.03;64.19
79527;BME280;68974;47.754;-3.364;2023-06-14T00:36:42;101332.44;;;18.82;64.35
79527;BME280;68974;47.754;-3.364;2023-06-14T00:39:07;101337.53;;;18.88;64.53
79527;BME280;68974;47.754;-3.364;2023-06-14T00:41:33;101336.88;;;18.91;64.37
79527;BME280;68974;47.754;-3.364;2023-06-14T00:43:59;101338.22;;;19.02;64.15
79527;BME280;68974;47.754;-3.364;2023-06-14T00:46:25;101341.34;;;19.01;63.87
79527;BME280;68974;47.754;-3.364;2023-06-14T00:48:50;101346.41;;;18.90;64.43
79527;BME280;68974;47.754;-3.364;2023-06-14T00:51:16;101337.53;;;18.88;64.42
79527;BME280;68974;47.754;-3.364;2023-06-14T00:53:41;101344.09;;;18.92;64.22
79527;BME280;68974;47.754;-3.364;2023-06-14T00:56:11;101338.03;;;18.90;63.98
79527;BME280;68974;47.754;-3.364;2023-06-14T00:58:38;101342.44;;;18.91;64.06
79527;BME280;68974;47.754;-3.364;2023-06-14T01:01:04;101340.50;;;18.92;64.26
79527;BME280;68974;47.754;-3.364;2023-06-14T01:03:29;101347.03;;;18.87;64.39
79527;BME280;68974;47.754;-3.364;2023-06-14T01:06:09;101346.84;;;18.75;64.71
79527;BME280;68974;47.754;-3.364;2023-06-14T01:08:47;101358.09;;;18.70;64.76
79527;BME280;68974;47.754;-3.364;2023-06-14T01:11:22;101343.22;;;18.75;64.47
79527;BME280;68974;47.754;-3.364;2023-06-14T01:13:53;101341.47;;;18.87;64.20
79527;BME280;68974;47.754;-3.364;2023-06-14T01:16:19;101341.75;;;18.77;64.15
79527;BME280;68974;47.754;-3.364;2023-06-14T01:18:45;101340.13;;;18.76;64.32
79527;BME280;68974;47.754;-3.364;2023-06-14T01:21:25;101346.63;;;18.72;64.02
79527;BME280;68974;47.754;-3.364;2023-06-14T01:23:51;101338.63;;;18.70;64.03
79527;BME280;68974;47.754;-3.364;2023-06-14T01:26:23;101339.38;;;18.62;64.41
79527;BME280;68974;47.754;-3.364;2023-06-14T01:28:50;101328.91;;;18.59;64.72
79527;BME280;68974;47.754;-3.364;2023-06-14T01:31:19;101342.81;;;18.59;64.69
79527;BME280;68974;47.754;-3.364;2023-06-14T01:33:48;101342.59;;;18.47;64.85
79527;BME280;68974;47.754;-3.364;2023-06-14T01:36:15;101331.06;;;18.40;65.03
79527;BME280;68974;47.754;-3.364;2023-06-14T01:38:43;101332.56;;;18.37;65.32
79527;BME280;68974;47.754;-3.364;2023-06-14T01:41:09;101328.47;;;18.43;65.00
79527;BME280;68974;47.754;-3.364;2023-06-14T01:43:35;101323.38;;;18.37;65.13
79527;BME280;68974;47.754;-3.364;2023-06-14T01:46:02;101329.94;;;18.41;64.83
79527;BME280;68974;47.754;-3.364;2023-06-14T01:48:28;101326.16;;;18.37;64.50
79527;BME280;68974;47.754;-3.364;2023-06-14T01:50:53;101325.34;;;18.36;64.79
79527;BME280;68974;47.754;-3.364;2023-06-14T01:53:19;101324.13;;;18.29;65.03
79527;BME280;68974;47.754;-3.364;2023-06-14T01:55:44;101314.66;;;18.30;65.05
79527;BME280;68974;47.754;-3.364;2023-06-14T01:58:13;101326.16;;;18.37;64.80
79527;BME280;68974;47.754;-3.364;2023-06-14T02:00:41;101311.00;;;18.21;64.94
79527;BME280;68974;47.754;-3.364;2023-06-14T02:03:08;101313.94;;;18.15;64.97
79527;BME280;68974;47.754;-3.364;2023-06-14T02:05:34;101308.81;;;18.09;65.14
79527;BME280;68974;47.754;-3.364;2023-06-14T02:08:00;101310.28;;;18.06;65.73
79527;BME280;68974;47.754;-3.364;2023-06-14T02:10:26;101310.28;;;18.06;65.65
79527;BME280;68974;47.754;-3.364;2023-06-14T02:12:51;101311.22;;;18.02;65.88
79527;BME280;68974;47.754;-3.364;2023-06-14T02:15:17;101311.19;;;17.93;66.36
79527;BME280;68974;47.754;-3.364;2023-06-14T02:17:44;101318.22;;;17.99;66.25
79527;BME280;68974;47.754;-3.364;2023-06-14T02:20:10;101303.72;;;18.02;66.26
79527;BME280;68974;47.754;-3.364;2023-06-14T02:22:35;101309.91;;;17.99;66.17
79527;BME280;68974;47.754;-3.364;2023-06-14T02:25:01;101301.25;;;18.01;66.27
79527;BME280;68974;47.754;-3.364;2023-06-14T02:27:26;101298.22;;;17.89;66.69
79527;BME280;68974;47.754;-3.364;2023-06-14T02:29:52;101300.19;;;17.88;66.52
79527;BME280;68974;47.754;-3.364;2023-06-14T02:32:17;101312.03;;;17.80;66.60
79527;BME280;68974;47.754;-3.364;2023-06-14T02:34:42;101306.38;;;17.85;66.73
79527;BME280;68974;47.754;-3.364;2023-06-14T02:37:08;101302.97;;;17.88;66.64
79527;BME280;68974;47.754;-3.364;2023-06-14T02:39:34;101306.72;;;17.70;67.09
79527;BME280;68974;47.754;-3.364;2023-06-14T02:42:00;101305.13;;;17.69;67.42
79527;BME280;68974;47.754;-3.364;2023-06-14T02:44:26;101307.38;;;17.67;67.71
79527;BME280;68974;47.754;-3.364;2023-06-14T02:46:55;101308.38;;;17.71;67.96
79527;BME280;68974;47.754;-3.364;2023-06-14T02:49:21;101306.94;;;17.73;67.78
79527;BME280;68974;47.754;-3.364;2023-06-14T02:51:47;101305.84;;;17.61;67.95
79527;BME280;68974;47.754;-3.364;2023-06-14T02:54:12;101302.81;;;17.71;68.09
79527;BME280;68974;47.754;-3.364;2023-06-14T02:56:37;101309.03;;;17.68;68.02
79527;BME280;68974;47.754;-3.364;2023-06-14T02:59:03;101306.72;;;17.70;67.79
79527;BME280;68974;47.754;-3.364;2023-06-14T03:01:29;101298.13;;;17.58;67.86
79527;BME280;68974;47.754;-3.364;2023-06-14T03:04:02;101298.34;;;17.61;68.17
79527;BME280;68974;47.754;-3.364;2023-06-14T03:06:29;101299.03;;;17.67;68.37
79527;BME280;68974;47.754;-3.364;2023-06-14T03:08:56;101292.97;;;17.65;67.74
79527;BME280;68974;47.754;-3.364;2023-06-14T03:11:27;101291.34;;;17.64;67.98
79527;BME280;68974;47.754;-3.364;2023-06-14T03:13:53;101285.78;;;17.64;68.21
79527;BME280;68974;47.754;-3.364;2023-06-14T03:16:20;101290.22;;;17.51;68.49
79527;BME280;68974;47.754;-3.364;2023-06-14T03:18:49;101291.16;;;17.47;68.92
79527;BME280;68974;47.754;-3.364;2023-06-14T03:21:15;101284.34;;;17.53;68.54
79527;BME280;68974;47.754;-3.364;2023-06-14T03:23:42;101288.09;;;17.48;68.92
79527;BME280;68974;47.754;-3.364;2023-06-14T03:26:07;101291.56;;;17.54;68.99
79527;BME280;68974;47.754;-3.364;2023-06-14T03:28:33;101288.91;;;17.49;68.86
79527;BME280;68974;47.754;-3.364;2023-06-14T03:30:59;101292.63;;;17.44;69.14
79527;BME280;68974;47.754;-3.364;2023-06-14T03:33:25;101302.31;;;17.33;69.54
79527;BME280;68974;47.754;-3.364;2023-06-14T03:35:51;101297.97;;;17.41;69.52
79527;BME280;68974;47.754;-3.364;2023-06-14T03:38:17;101300.75;;;17.41;69.46
79527;BME280;68974;47.754;-3.364;2023-06-14T03:40:42;101294.69;;;17.39;69.30
79527;BME280;68974;47.754;-3.364;2023-06-14T03:43:07;101291.09;;;17.38;69.16
79527;BME280;68974;47.754;-3.364;2023-06-14T03:45:33;101301.31;;;17.29;69.53
79527;BME280;68974;47.754;-3.364;2023-06-14T03:47:58;101300.28;;;17.11;70.08
79527;BME280;68974;47.754;-3.364;2023-06-14T03:50:25;101304.50;;;17.22;69.59
79527;BME280;68974;47.754;-3.364;2023-06-14T03:52:52;101310.16;;;17.17;69.79
79527;BME280;68974;47.754;-3.364;2023-06-14T03:55:17;101308.50;;;17.16;70.00
79527;BME280;68974;47.754;-3.364;2023-06-14T03:57:43;101310.06;;;17.22;70.25
79527;BME280;68974;47.754;-3.364;2023-06-14T04:00:09;101311.06;;;17.26;69.91
79527;BME280;68974;47.754;-3.364;2023-06-14T04:02:35;101310.75;;;17.28;69.41
79527;BME280;68974;47.754;-3.364;2023-06-14T04:05:02;101313.47;;;17.19;69.66
79527;BME280;68974;47.754;-3.364;2023-06-14T04:07:28;101315.13;;;17.07;70.32
79527;BME280;68974;47.754;-3.364;2023-06-14T04:09:54;101315.75;;;16.90;71.38
79527;BME280;68974;47.754;-3.364;2023-06-14T04:12:20;101322.72;;;17.01;70.70
79527;BME280;68974;47.754;-3.364;2023-06-14T04:14:46;101322.50;;;17.11;70.50
79527;BME280;68974;47.754;-3.364;2023-06-14T04:17:11;101309.38;;;17.03;70.22
79527;BME280;68974;47.754;-3.364;2023-06-14T04:19:36;101306.78;;;17.07;70.03
79527;BME280;68974;47.754;-3.364;2023-06-14T04:22:02;101315.53;;;16.86;70.76
79527;BME280;68974;47.754;-3.364;2023-06-14T04:24:28;101320.06;;;16.96;70.81
79527;BME280;68974;47.754;-3.364;2023-06-14T04:26:58;101317.59;;;16.95;70.82
79527;BME280;68974;47.754;-3.364;2023-06-14T04:29:24;101318.81;;;17.02;70.21
79527;BME280;68974;47.754;-3.364;2023-06-14T04:31:51;101325.59;;;16.96;70.27
79527;BME280;68974;47.754;-3.364;2023-06-14T04:34:17;101318.63;;;16.99;70.81
79527;BME280;68974;47.754;-3.364;2023-06-14T04:36:43;101319.44;;;16.99;70.86
79527;BME280;68974;47.754;-3.364;2023-06-14T04:39:17;101323.25;;;17.03;70.53
79527;BME280;68974;47.754;-3.364;2023-06-14T04:41:48;101325.38;;;17.06;70.64
79527;BME280;68974;47.754;-3.364;2023-06-14T04:44:18;101329.72;;;17.12;70.31
79527;BME280;68974;47.754;-3.364;2023-06-14T04:46:47;101326.81;;;17.17;70.15
79527;BME280;68974;47.754;-3.364;2023-06-14T04:49:15;101326.00;;;17.17;70.50
79527;BME280;68974;47.754;-3.364;2023-06-14T04:51:42;101335.88;;;17.09;69.94
79527;BME280;68974;47.754;-3.364;2023-06-14T04:54:08;101333.00;;;17.14;69.97
79527;BME280;68974;47.754;-3.364;2023-06-14T04:56:41;101322.91;;;17.18;69.63
79527;BME280;68974;47.754;-3.364;2023-06-14T04:59:07;101320.63;;;17.20;69.51
79527;BME280;68974;47.754;-3.364;2023-06-14T05:01:33;101326.59;;;17.27;69.45
79527;BME280;68974;47.754;-3.364;2023-06-14T05:03:59;101330.09;;;17.33;69.35
79527;BME280;68974;47.754;-3.364;2023-06-14T05:06:25;101341.38;;;17.37;68.83
79527;BME280;68974;47.754;-3.364;2023-06-14T05:08:53;101337.06;;;17.44;68.80
79527;BME280;68974;47.754;-3.364;2023-06-14T05:11:18;101348.84;;;17.50;68.45
79527;BME280;68974;47.754;-3.364;2023-06-14T05:13:44;101343.81;;;17.52;67.92
79527;BME280;68974;47.754;-3.364;2023-06-14T05:16:10;101354.09;;;17.51;67.63
79527;BME280;68974;47.754;-3.364;2023-06-14T05:18:36;101355.22;;;17.50;68.25
79527;BME280;68974;47.754;-3.364;2023-06-14T05:21:02;101350.00;;;17.62;68.30
79527;BME280;68974;47.754;-3.364;2023-06-14T05:23:29;101350.59;;;17.73;67.36
79527;BME280;68974;47.754;-3.364;2023-06-14T05:25:55;101355.94;;;17.69;67.29
79527;BME280;68974;47.754;-3.364;2023-06-14T05:28:22;101354.38;;;17.77;67.44
79527;BME280;68974;47.754;-3.364;2023-06-14T05:30:47;101359.53;;;17.70;67.06
79527;BME280;68974;47.754;-3.364;2023-06-14T05:33:13;101364.78;;;17.71;67.04
79527;BME280;68974;47.754;-3.364;2023-06-14T05:35:38;101355.63;;;17.71;67.03
79527;BME280;68974;47.754;-3.364;2023-06-14T05:38:03;101353.72;;;17.80;66.88
79527;BME280;68974;47.754;-3.364;2023-06-14T05:40:29;101362.00;;;17.94;66.44
79527;BME280;68974;47.754;-3.364;2023-06-14T05:42:54;101352.09;;;18.01;65.91
79527;BME280;68974;47.754;-3.364;2023-06-14T05:45:20;101359.06;;;18.12;65.81
79527;BME280;68974;47.754;-3.364;2023-06-14T05:47:45;101358.28;;;18.21;65.12
79527;BME280;68974;47.754;-3.364;2023-06-14T05:50:10;101360.81;;;18.31;64.90
79527;BME280;68974;47.754;-3.364;2023-06-14T05:52:36;101366.72;;;18.38;64.46
79527;BME280;68974;47.754;-3.364;2023-06-14T05:55:03;101360.19;;;18.42;63.95
79527;BME280;68974;47.754;-3.364;2023-06-14T05:57:28;101369.75;;;18.50;64.21
79527;BME280;68974;47.754;-3.364;2023-06-14T05:59:54;101367.34;;;18.57;64.23
79527;BME280;68974;47.754;-3.364;2023-06-14T06:02:19;101379.81;;;18.59;63.94
79527;BME280;68974;47.754;-3.364;2023-06-14T06:04:45;101373.81;;;18.66;63.78
79527;BME280;68974;47.754;-3.364;2023-06-14T06:07:10;101376.53;;;18.57;63.80
79527;BME280;68974;47.754;-3.364;2023-06-14T06:09:36;101374.28;;;18.68;63.41
79527;BME280;68974;47.754;-3.364;2023-06-14T06:12:01;101387.94;;;18.78;62.72
79527;BME280;68974;47.754;-3.364;2023-06-14T06:14:27;101389.56;;;18.79;62.65
79527;BME280;68974;47.754;-3.364;2023-06-14T06:16:53;101396.00;;;18.88;62.78
79527;BME280;68974;47.754;-3.364;2023-06-14T06:19:19;101402.78;;;19.04;62.51
79527;BME280;68974;47.754;-3.364;2023-06-14T06:21:44;101399.97;;;18.96;62.38
79527;BME280;68974;47.754;-3.364;2023-06-14T06:24:10;101400.78;;;18.96;62.28
79527;BME280;68974;47.754;-3.364;2023-06-14T06:26:35;101400.69;;;19.19;61.98
79527;BME280;68974;47.754;-3.364;2023-06-14T06:29:03;101405.06;;;19.02;61.95
79527;BME280;68974;47.754;-3.364;2023-06-14T06:31:29;101407.06;;;19.11;61.43
79527;BME280;68974;47.754;-3.364;2023-06-14T06:33:54;101414.16;;;19.25;61.50
79527;BME280;68974;47.754;-3.364;2023-06-14T06:36:20;101415.31;;;19.33;61.17
79527;BME280;68974;47.754;-3.364;2023-06-14T06:38:47;101409.44;;;19.43;61.04
79527;BME280;68974;47.754;-3.364;2023-06-14T06:41:12;101419.81;;;19.51;61.20
79527;BME280;68974;47.754;-3.364;2023-06-14T06:43:38;101416.97;;;19.34;60.91
79527;BME280;68974;47.754;-3.364;2023-06-14T06:46:03;101415.06;;;19.60;61.06
79527;BME280;68974;47.754;-3.364;2023-06-14T06:48:28;101408.56;;;19.73;60.25
79527;BME280;68974;47.754;-3.364;2023-06-14T06:50:54;101419.38;;;19.83;59.67
79527;BME280;68974;47.754;-3.364;2023-06-14T06:53:20;101416.75;;;19.96;59.71
79527;BME280;68974;47.754;-3.364;2023-06-14T06:55:45;101422.69;;;20.03;59.41
79527;BME280;68974;47.754;-3.364;2023-06-14T06:58:12;101418.38;;;20.14;58.89
79527;BME280;68974;47.754;-3.364;2023-06-14T07:00:37;101418.56;;;20.09;59.14
79527;BME280;68974;47.754;-3.364;2023-06-14T07:03:03;101417.72;;;20.25;58.64
79527;BME280;68974;47.754;-3.364;2023-06-14T07:05:29;101416.09;;;20.33;58.71
79527;BME280;68974;47.754;-3.364;2023-06-14T07:07:54;101423.66;;;20.41;57.99
79527;BME280;68974;47.754;-3.364;2023-06-14T07:10:20;101418.22;;;20.45;57.67
79527;BME280;68974;47.754;-3.364;2023-06-14T07:12:45;101417.56;;;20.56;58.08
79527;BME280;68974;47.754;-3.364;2023-06-14T07:15:11;101423.44;;;20.72;57.42
79527;BME280;68974;47.754;-3.364;2023-06-14T07:17:36;101429.63;;;20.86;57.07
79527;BME280;68974;47.754;-3.364;2023-06-14T07:20:04;101425.84;;;20.91;56.65
79527;BME280;68974;47.754;-3.364;2023-06-14T07:22:32;101437.88;;;21.12;56.14
79527;BME280;68974;47.754;-3.364;2023-06-14T07:24:58;101432.47;;;21.07;55.75
79527;BME280;68974;47.754;-3.364;2023-06-14T07:27:23;101438.44;;;21.43;55.26
79527;BME280;68974;47.754;-3.364;2023-06-14T07:29:49;101435.44;;;21.48;55.27
79527;BME280;68974;47.754;-3.364;2023-06-14T07:32:14;101442.84;;;21.74;55.00
79527;BME280;68974;47.754;-3.364;2023-06-14T07:34:40;101438.75;;;21.92;54.65
79527;BME280;68974;47.754;-3.364;2023-06-14T07:37:05;101438.25;;;21.98;54.10
79527;BME280;68974;47.754;-3.364;2023-06-14T07:39:31;101443.16;;;22.22;53.79
79527;BME280;68974;47.754;-3.364;2023-06-14T07:41:56;101445.19;;;22.34;53.45
79527;BME280;68974;47.754;-3.364;2023-06-14T07:44:22;101442.03;;;22.35;53.40
79527;BME280;68974;47.754;-3.364;2023-06-14T07:46:47;101440.47;;;22.59;52.23
79527;BME280;68974;47.754;-3.364;2023-06-14T07:49:15;101441.88;;;22.98;51.64
79527;BME280;68974;47.754;-3.364;2023-06-14T07:51:41;101441.09;;;23.09;51.11
79527;BME280;68974;47.754;-3.364;2023-06-14T07:54:06;101435.50;;;23.21;50.49
79527;BME280;68974;47.754;-3.364;2023-06-14T07:56:34;101449.19;;;23.47;50.08
79527;BME280;68974;47.754;-3.364;2023-06-14T07:58:59;101448.63;;;23.54;50.10
79527;BME280;68974;47.754;-3.364;2023-06-14T08:01:24;101448.97;;;23.52;50.12
79527;BME280;68974;47.754;-3.364;2023-06-14T08:03:51;101451.66;;;23.49;50.16
79527;BME280;68974;47.754;-3.364;2023-06-14T08:06:16;101454.44;;;23.73;48.88
79527;BME280;68974;47.754;-3.364;2023-06-14T08:08:41;101457.69;;;23.75;49.51
79527;BME280;68974;47.754;-3.364;2023-06-14T08:11:07;101463.13;;;24.08;48.87
79527;BME280;68974;47.754;-3.364;2023-06-14T08:13:32;101461.41;;;24.03;49.29
79527;BME280;68974;47.754;-3.364;2023-06-14T08:15:58;101459.72;;;24.27;48.26
79527;BME280;68974;47.754;-3.364;2023-06-14T08:18:23;101460.34;;;24.48;47.80
79527;BME280;68974;47.754;-3.364;2023-06-14T08:20:49;101458.75;;;24.78;46.65
79527;BME280;68974;47.754;-3.364;2023-06-14T08:23:15;101456.03;;;25.10;45.90
79527;BME280;68974;47.754;-3.364;2023-06-14T08:25:44;101461.94;;;25.36;45.97
79527;BME280;68974;47.754;-3.364;2023-06-14T08:28:10;101458.81;;;25.72;45.13
79527;BME280;68974;47.754;-3.364;2023-06-14T08:30:35;101456.47;;;25.43;45.26
79527;BME280;68974;47.754;-3.364;2023-06-14T08:33:01;101463.53;;;25.68;45.48
79527;BME280;68974;47.754;-3.364;2023-06-14T08:35:26;101463.38;;;25.45;45.37
79527;BME280;68974;47.754;-3.364;2023-06-14T08:37:52;101469.16;;;25.68;45.73
79527;BME280;68974;47.754;-3.364;2023-06-14T08:40:19;101465.25;;;26.08;44.85
79527;BME280;68974;47.754;-3.364;2023-06-14T08:42:53;101468.41;;;26.22;43.44
79527;BME280;68974;47.754;-3.364;2023-06-14T08:45:23;101474.78;;;26.38;44.17
79527;BME280;68974;47.754;-3.364;2023-06-14T08:47:50;101465.44;;;26.53;43.68
79527;BME280;68974;47.754;-3.364;2023-06-14T08:50:23;101463.59;;;26.84;42.74
79527;BME280;68974;47.754;-3.364;2023-06-14T08:52:54;101469.84;;;26.73;43.18
79527;BME280;68974;47.754;-3.364;2023-06-14T08:55:21;101462.91;;;26.67;42.64
79527;BME280;68974;47.754;-3.364;2023-06-14T08:57:51;101469.84;;;26.73;42.26
79527;BME280;68974;47.754;-3.364;2023-06-14T09:00:19;101462.28;;;26.97;42.71
79527;BME280;68974;47.754;-3.364;2023-06-14T09:02:46;101460.38;;;27.04;41.63
79527;BME280;68974;47.754;-3.364;2023-06-14T09:05:12;101461.38;;;27.38;41.93
79527;BME280;68974;47.754;-3.364;2023-06-14T09:07:43;101461.44;;;27.65;41.65
79527;BME280;68974;47.754;-3.364;2023-06-14T09:10:11;101469.53;;;27.96;40.67
79527;BME280;68974;47.754;-3.364;2023-06-14T09:12:38;101480.69;;;28.12;40.53
79527;BME280;68974;47.754;-3.364;2023-06-14T09:15:04;101478.63;;;28.09;41.45
79527;BME280;68974;47.754;-3.364;2023-06-14T09:17:38;101470.84;;;28.28;40.39
79527;BME280;68974;47.754;-3.364;2023-06-14T09:20:05;101465.41;;;28.46;39.03
79527;BME280;68974;47.754;-3.364;2023-06-14T09:22:32;101474.69;;;28.80;38.99
79527;BME280;68974;47.754;-3.364;2023-06-14T09:24:58;101468.34;;;28.90;37.88
79527;BME280;68974;47.754;-3.364;2023-06-14T09:27:28;101468.69;;;28.85;38.48
79527;BME280;68974;47.754;-3.364;2023-06-14T09:29:54;101468.75;;;29.33;37.39
79527;BME280;68974;47.754;-3.364;2023-06-14T09:32:22;101470.81;;;29.32;37.10
79527;BME280;68974;47.754;-3.364;2023-06-14T09:34:48;101470.34;;;29.30;38.37
79527;BME280;68974;47.754;-3.364;2023-06-14T09:37:27;101469.63;;;29.37;37.56
79527;BME280;68974;47.754;-3.364;2023-06-14T09:39:52;101465.56;;;29.34;37.59
79527;BME280;68974;47.754;-3.364;2023-06-14T09:42:18;101476.91;;;29.38;37.77
79527;BME280;68974;47.754;-3.364;2023-06-14T09:44:48;101467.00;;;29.65;38.12
79527;BME280;68974;47.754;-3.364;2023-06-14T09:47:15;101468.75;;;29.80;37.06
79527;BME280;68974;47.754;-3.364;2023-06-14T09:49:41;101465.91;;;29.80;37.84
79527;BME280;68974;47.754;-3.364;2023-06-14T09:52:07;101463.66;;;30.07;37.38
79527;BME280;68974;47.754;-3.364;2023-06-14T09:54:40;101456.19;;;29.81;37.85
79527;BME280;68974;47.754;-3.364;2023-06-14T09:57:07;101458.78;;;30.00;37.01
79527;BME280;68974;47.754;-3.364;2023-06-14T09:59:34;101461.56;;;29.97;37.00
79527;BME280;68974;47.754;-3.364;2023-06-14T10:02:07;101454.84;;;30.26;36.48
79527;BME280;68974;47.754;-3.364;2023-06-14T10:04:36;101463.69;;;30.14;36.81
79527;BME280;68974;47.754;-3.364;2023-06-14T10:07:03;101461.38;;;30.37;36.63
79527;BME280;68974;47.754;-3.364;2023-06-14T10:09:30;101464.69;;;30.50;36.87
79527;BME280;68974;47.754;-3.364;2023-06-14T10:11:56;101463.91;;;30.60;35.19
79527;BME280;68974;47.754;-3.364;2023-06-14T10:14:21;101459.09;;;30.78;35.37
79527;BME280;68974;47.754;-3.364;2023-06-14T10:17:04;101459.16;;;31.10;35.22
79527;BME280;68974;47.754;-3.364;2023-06-14T10:19:42;101467.28;;;31.26;35.46
79527;BME280;68974;47.754;-3.364;2023-06-14T10:22:18;101471.34;;;31.25;34.50
79527;BME280;68974;47.754;-3.364;2023-06-14T10:24:45;101464.84;;;31.28;35.04
79527;BME280;68974;47.754;-3.364;2023-06-14T10:27:14;101468.50;;;31.25;34.91
79527;BME280;68974;47.754;-3.364;2023-06-14T10:30:07;101475.81;;;31.26;34.67
79527;BME280;68974;47.754;-3.364;2023-06-14T10:32:33;101470.94;;;31.30;33.89
79527;BME280;68974;47.754;-3.364;2023-06-14T10:34:59;101462.06;;;31.56;33.49
79527;BME280;68974;47.754;-3.364;2023-06-14T10:37:25;101466.88;;;31.77;34.18
79527;BME280;68974;47.754;-3.364;2023-06-14T10:39:51;101467.25;;;31.90;33.31
79527;BME280;68974;47.754;-3.364;2023-06-14T10:42:17;101468.06;;;32.01;33.98
79527;BME280;68974;47.754;-3.364;2023-06-14T10:44:43;101461.19;;;31.80;33.76
79527;BME280;68974;47.754;-3.364;2023-06-14T10:47:57;101455.06;;;31.93;32.14
79527;BME280;68974;47.754;-3.364;2023-06-14T10:50:13;101458.69;;;31.97;31.95
79527;BME280;68974;47.754;-3.364;2023-06-14T10:52:41;101459.91;;;32.10;31.69
79527;BME280;68974;47.754;-3.364;2023-06-14T10:55:08;101468.44;;;32.10;31.83
79527;BME280;68974;47.754;-3.364;2023-06-14T10:57:39;101459.13;;;31.99;32.81
79527;BME280;68974;47.754;-3.364;2023-06-14T11:00:06;101458.59;;;32.39;32.76
79527;BME280;68974;47.754;-3.364;2023-06-14T11:05:08;101462.09;;;32.72;32.15
79527;BME280;68974;47.754;-3.364;2023-06-14T11:10:58;101467.84;;;32.57;33.28
79527;BME280;68974;47.754;-3.364;2023-06-14T11:13:05;101458.38;;;32.82;33.58
79527;BME280;68974;47.754;-3.364;2023-06-14T11:15:31;101462.53;;;32.66;32.44
79527;BME280;68974;47.754;-3.364;2023-06-14T11:17:57;101455.63;;;32.60;33.15
79527;BME280;68974;47.754;-3.364;2023-06-14T11:20:26;101462.44;;;32.81;34.25
79527;BME280;68974;47.754;-3.364;2023-06-14T11:22:53;101452.53;;;32.27;34.53
79527;BME280;68974;47.754;-3.364;2023-06-14T11:25:19;101449.69;;;32.34;34.22
79527;BME280;68974;47.754;-3.364;2023-06-14T11:27:45;101452.38;;;32.62;33.26
79527;BME280;68974;47.754;-3.364;2023-06-14T11:30:11;101445.50;;;32.59;33.44
79527;BME280;68974;47.754;-3.364;2023-06-14T11:32:37;101454.00;;;32.66;33.92
79527;BME280;68974;47.754;-3.364;2023-06-14T11:35:04;101445.91;;;32.58;33.50
79527;BME280;68974;47.754;-3.364;2023-06-14T11:37:33;101447.56;;;32.48;34.22
79527;BME280;68974;47.754;-3.364;2023-06-14T11:40:01;101446.19;;;31.62;34.91
79527;BME280;68974;47.754;-3.364;2023-06-14T11:42:30;101447.75;;;31.92;34.41
79527;BME280;68974;47.754;-3.364;2023-06-14T11:44:55;101455.13;;;31.71;35.15
79527;BME280;68974;47.754;-3.364;2023-06-14T11:47:22;101451.88;;;31.30;35.41
79527;BME280;68974;47.754;-3.364;2023-06-14T11:49:47;101445.41;;;31.37;36.24
79527;BME280;68974;47.754;-3.364;2023-06-14T11:52:13;101451.09;;;31.37;35.61
79527;BME280;68974;47.754;-3.364;2023-06-14T11:54:39;101445.38;;;31.30;36.56
79527;BME280;68974;47.754;-3.364;2023-06-14T11:57:06;101444.56;;;31.79;36.13
79527;BME280;68974;47.754;-3.364;2023-06-14T11:59:32;101440.50;;;31.69;35.96
79527;BME280;68974;47.754;-3.364;2023-06-14T12:02:03;101445.69;;;32.03;35.40
79527;BME280;68974;47.754;-3.364;2023-06-14T12:04:29;101443.25;;;32.05;34.62
79527;BME280;68974;47.754;-3.364;2023-06-14T12:06:55;101443.66;;;32.14;35.35
79527;BME280;68974;47.754;-3.364;2023-06-14T12:09:23;101439.19;;;32.02;35.54
79527;BME280;68974;47.754;-3.364;2023-06-14T12:11:49;101437.97;;;32.07;34.88
79527;BME280;68974;47.754;-3.364;2023-06-14T12:14:15;101437.56;;;32.01;35.19
79527;BME280;68974;47.754;-3.364;2023-06-14T12:16:41;101436.22;;;32.41;35.88
79527;BME280;68974;47.754;-3.364;2023-06-14T12:19:12;101438.22;;;32.48;35.14
79527;BME280;68974;47.754;-3.364;2023-06-14T12:21:39;101438.34;;;32.23;34.73
79527;BME280;68974;47.754;-3.364;2023-06-14T12:24:08;101441.47;;;32.53;34.75
79527;BME280;68974;47.754;-3.364;2023-06-14T12:26:38;101437.44;;;32.40;34.30
79527;BME280;68974;47.754;-3.364;2023-06-14T12:29:05;101433.72;;;32.50;34.85
79527;BME280;68974;47.754;-3.364;2023-06-14T12:31:31;101434.19;;;32.42;33.77
79527;BME280;68974;47.754;-3.364;2023-06-14T12:33:57;101441.06;;;32.51;34.17
79527;BME280;68974;47.754;-3.364;2023-06-14T12:36:23;101435.13;;;32.14;34.62
79527;BME280;68974;47.754;-3.364;2023-06-14T12:38:48;101435.63;;;31.77;34.81
79527;BME280;68974;47.754;-3.364;2023-06-14T12:41:14;101440.50;;;31.62;35.08
79527;BME280;68974;47.754;-3.364;2023-06-14T12:43:41;101436.84;;;31.55;35.57